Aviation Digital Data Service (ADDS)

Output produced by METARs form (0215 UTC 03 September 2014)
found at http://aviationweather.gov/adds/metars/
 
KSFO 030103Z 0301/0406 28017KT P6SM FEW008 
     FM030400 29012KT P6SM SCT010 
     TEMPO 0304/0306 BKN010 
     FM030600 28006KT P6SM -DZ OVC010 
     FM031800 28008KT P6SM FEW010 
     FM032100 29017KT P6SM FEW010 
     FM040400 29011KT P6SM SCT010